La Porte, Minnesota
Current Conditions -  °F | °C
As of 8:35 PM on Friday 24 Oct 2014 (Local Time) from KY49 Reporting Station
Clear Clear  
Wind Chill: 62°   Ceiling: Unl
Heat Index: 62°   Visibility: 10mi
Dew Point: 34°   Wind: 12mph
Humidity: 35%   Direction: 290°WNW
Pressure: 29.8"   Gusts: 20mph
Location:  47.2392°N, 94.7928°W
Report Text: KY49 250135Z AUTO 29010G17KT 10SM CLR 17/01 A2980 RMK AO2 T01660011
Loading
Personal Weather Stations






























Interactive Weather Map
Tropical Storm Tracking
New forecast layout! Learn more

10-Day Weather Forecast

Advertisements
Track Severe Weather on mobile